»·PEaware :: N7GL KBFL-KSNA

N7GL :: KBFL-KSNA

FLIGHT INFORMATION

Flight Status: Arrived
Operator: Privately registered:
United States
More flights under this callsign
Pilot: Georg L. (13308)
Aircraft: BEECH AIRCRAFT SUPER KING AIR 350
(B350)
More flights by this aircraft type
Origin: KBFL Meadows
United States
Destination: KSNA John Wayne-Orange Co
United States
More flights between these airports :: More routes between these airports
Route: +MEADO4 LHS V459 SLI
File this flight plan on PilotEdge
Remarks:
Altitude:
(Current/Filed)
17,000ft
Speed:
(Current/Filed)
294kts
Departed: 11-Sep-20 03:15 PM
Arrived: 11-Sep-20 03:53 PM
Distance/Time
Traveled:
121nm/0:37
Distance/Time
To Go:
Arrived

Flight Plot

Page will automatically refresh every two minutes.

Flight plan parsing failed; only flown route is shown


Map Options




Map Legend


Flown Route
Filed Route
Departure Airport
Arrival Airport
Navaid (VOR, NDB)
Fix

Horizontal Profiles

Position Reports

Time Latitude Longitude Heading Altitude Ground
Speed
11-Sep-20 14:50 35.431401 -119.048272 228 500ft 0kts
11-Sep-20 14:51 35.431401 -119.048271 228 500ft 0kts
11-Sep-20 14:52 35.431401 -119.048271 228 500ft 0kts
11-Sep-20 14:53 35.431401 -119.048272 228 500ft 0kts
11-Sep-20 14:54 35.431401 -119.048272 228 500ft 0kts
11-Sep-20 14:55 35.431401 -119.048272 228 500ft 0kts
11-Sep-20 14:56 35.431401 -119.048272 228 500ft 0kts
11-Sep-20 14:57 35.431401 -119.048272 228 500ft 0kts
11-Sep-20 14:58 35.431401 -119.048272 228 500ft 0kts
11-Sep-20 14:59 35.431401 -119.048272 228 500ft 0kts
11-Sep-20 15:00 35.431401 -119.048272 228 500ft 0kts
11-Sep-20 15:01 35.431401 -119.048272 228 500ft 0kts
11-Sep-20 15:03 35.431401 -119.048272 228 500ft 0kts
11-Sep-20 15:04 35.431401 -119.048271 228 500ft 0kts
11-Sep-20 15:05 35.431401 -119.048271 228 500ft 0kts
11-Sep-20 15:06 35.431401 -119.048271 228 500ft 0kts
11-Sep-20 15:07 35.431401 -119.048272 228 500ft 0kts
11-Sep-20 15:08 35.431401 -119.048272 228 500ft 0kts
11-Sep-20 15:09 35.431401 -119.048272 228 500ft 0kts
11-Sep-20 15:10 35.431401 -119.048272 228 500ft 0kts
11-Sep-20 15:11 35.430918 -119.048955 236 500ft 10kts
11-Sep-20 15:12 35.429316 -119.048447 136 500ft 15kts
11-Sep-20 15:13 35.425983 -119.044790 205 500ft 5kts
11-Sep-20 15:14 35.425622 -119.046281 316 500ft 20kts
11-Sep-20 15:15 35.450241 -119.078196 314 1620ft 174kts
11-Sep-20 15:16 35.484145 -119.122397 313 3683ft 183kts
11-Sep-20 15:17 35.519779 -119.168876 313 5351ft 190kts
11-Sep-20 15:17 35.548455 -119.210321 283 6562ft 194kts
11-Sep-20 15:19 35.504678 -119.237027 172 8477ft 187kts
11-Sep-20 15:20 35.459339 -119.206793 145 10115ft 189kts
11-Sep-20 15:20 35.422911 -119.176238 146 11466ft 192kts
11-Sep-20 15:21 35.378105 -119.139509 146 13092ft 196kts
11-Sep-20 15:23 35.325106 -119.096172 146 14875ft 199kts
11-Sep-20 15:23 35.286552 -119.064689 146 16053ft 201kts
11-Sep-20 15:24 35.239040 -119.025988 146 17023ft 223kts
11-Sep-20 15:26 35.171153 -118.971114 147 17009ft 271kts
11-Sep-20 15:26 35.117038 -118.927369 147 17004ft 286kts
11-Sep-20 15:27 35.049557 -118.872793 147 17001ft 295kts
11-Sep-20 15:28 34.980707 -118.817145 147 17000ft 298kts
11-Sep-20 15:29 34.911417 -118.761692 147 16999ft 299kts
11-Sep-20 15:30 34.841595 -118.705624 147 17005ft 300kts
11-Sep-20 15:31 34.772168 -118.649796 147 17021ft 300kts
11-Sep-20 15:32 34.702692 -118.594054 147 17036ft 299kts
11-Sep-20 15:33 34.629189 -118.546262 155 17036ft 299kts
11-Sep-20 15:34 34.554241 -118.502656 155 17036ft 299kts
11-Sep-20 15:35 34.479085 -118.458786 155 16955ft 301kts
11-Sep-20 15:36 34.403531 -118.414725 155 16953ft 300kts
11-Sep-20 15:37 34.325790 -118.369658 155 15978ft 323kts
11-Sep-20 15:38 34.243272 -118.321985 155 14691ft 326kts
11-Sep-20 15:39 34.163734 -118.275765 155 13978ft 308kts
11-Sep-20 15:40 34.085757 -118.230662 154 13057ft 313kts
11-Sep-20 15:41 34.007890 -118.185007 154 11649ft 308kts
11-Sep-20 15:42 33.932157 -118.141287 154 10363ft 295kts
11-Sep-20 15:43 33.858516 -118.098780 151 9149ft 290kts
11-Sep-20 15:44 33.841335 -118.017582 72 7787ft 267kts
11-Sep-20 15:45 33.863309 -117.935177 72 6457ft 249kts
11-Sep-20 15:46 33.884136 -117.857162 72 5141ft 240kts
11-Sep-20 15:47 33.875694 -117.784950 138 3815ft 233kts
11-Sep-20 15:48 33.814721 -117.782422 200 2983ft 210kts
11-Sep-20 15:49 33.766954 -117.810940 207 1957ft 168kts
11-Sep-20 15:50 33.728046 -117.835646 208 1128ft 157kts
11-Sep-20 15:51 33.696069 -117.855934 208 424ft 109kts
11-Sep-20 15:52 33.674079 -117.869923 229 61ft 8kts
11-Sep-20 15:53 33.674280 -117.871166 235 61ft 0kts
11-Sep-20 15:54 33.674017 -117.872379 334 61ft 4kts
11-Sep-20 15:55 33.674088 -117.872371 31 61ft 0kts
11-Sep-20 15:56 33.674088 -117.872371 31 61ft 0kts
11-Sep-20 15:57 33.674088 -117.872371 31 61ft 0kts

Navigation Log

Ident Type
Flight plan parsing failed, navigation log unavailable